createdAt,value
2022-11-20T00:01:01.932Z,0
2022-11-20T00:02:11.103Z,0
2022-11-20T00:03:20.284Z,0
2022-11-20T00:04:29.446Z,0
2022-11-20T00:05:38.739Z,0
2022-11-20T00:06:47.793Z,0
2022-11-20T00:09:06.138Z,0
2022-11-20T00:10:15.321Z,0
2022-11-20T00:11:23.498Z,0
2022-11-20T00:12:32.675Z,0
2022-11-20T00:13:41.847Z,0
2022-11-20T00:14:51.025Z,0
2022-11-20T00:16:00.198Z,0
2022-11-20T00:17:09.370Z,0
2022-11-20T00:18:18.542Z,0
2022-11-20T00:19:27.725Z,0
2022-11-20T00:20:35.918Z,0
2022-11-20T00:21:44.102Z,0
2022-11-20T00:22:53.284Z,0
2022-11-20T00:24:01.474Z,0
2022-11-20T00:25:09.664Z,0
2022-11-20T00:26:18.855Z,0
2022-11-20T00:27:28.011Z,0
2022-11-20T00:28:37.188Z,0
2022-11-20T00:29:46.361Z,0
2022-11-20T00:30:55.547Z,0
2022-11-20T00:32:04.712Z,0
2022-11-20T00:33:13.876Z,0
2022-11-20T00:34:23.051Z,0
2022-11-20T00:36:41.401Z,0
2022-11-20T00:37:50.570Z,0
2022-11-20T00:38:59.742Z,0
2022-11-20T00:40:07.985Z,0
2022-11-20T00:41:17.103Z,0
2022-11-20T00:42:26.275Z,0
2022-11-20T00:43:35.450Z,0
2022-11-20T00:44:44.691Z,0
2022-11-20T00:45:53.806Z,0
2022-11-20T00:47:02.991Z,0
2022-11-20T00:48:12.157Z,0
2022-11-20T00:49:20.350Z,0
2022-11-20T00:50:28.546Z,0
2022-11-20T00:51:36.748Z,0
2022-11-20T00:52:44.928Z,0
2022-11-20T00:53:54.116Z,0
2022-11-20T00:55:03.275Z,0
2022-11-20T00:56:12.455Z,0
2022-11-20T00:57:21.634Z,0
2022-11-20T00:58:30.801Z,0
2022-11-20T00:59:39.975Z,0
2022-11-20T01:00:49.157Z,0
2022-11-20T01:01:58.329Z,0
2022-11-20T01:03:07.501Z,0
2022-11-20T01:04:16.671Z,0
2022-11-20T01:05:25.891Z,0
2022-11-20T01:06:35.024Z,0
2022-11-20T01:07:43.218Z,0
2022-11-20T01:08:52.386Z,0
2022-11-20T01:10:01.561Z,0
2022-11-20T01:11:10.740Z,0
2022-11-20T01:12:19.912Z,0
2022-11-20T01:13:29.078Z,0
2022-11-20T01:14:38.257Z,0
2022-11-20T01:15:46.459Z,0
2022-11-20T01:16:54.650Z,0
2022-11-20T01:18:02.838Z,0
2022-11-20T01:19:11.037Z,0
2022-11-20T01:20:20.198Z,0
2022-11-20T01:21:29.381Z,0
2022-11-20T01:22:38.548Z,0
2022-11-20T01:23:47.722Z,0
2022-11-20T01:24:56.921Z,0
2022-11-20T01:26:06.077Z,0
2022-11-20T01:27:15.242Z,0
2022-11-20T01:28:24.421Z,0
2022-11-20T01:29:33.598Z,0
2022-11-20T01:30:42.766Z,0
2022-11-20T01:31:51.933Z,0
2022-11-20T01:33:01.119Z,0
2022-11-20T01:34:09.310Z,0
2022-11-20T01:35:18.475Z,0
2022-11-20T01:36:27.650Z,0
2022-11-20T01:37:36.831Z,0
2022-11-20T01:38:46.004Z,0
2022-11-20T01:39:55.168Z,0
2022-11-20T01:41:04.594Z,0
2022-11-20T01:42:12.550Z,0
2022-11-20T01:43:20.741Z,0
2022-11-20T01:44:29.901Z,0
2022-11-20T01:45:39.078Z,0
2022-11-20T01:46:48.248Z,0
2022-11-20T01:47:56.454Z,0
2022-11-20T01:49:04.634Z,0
2022-11-20T01:50:13.922Z,0
2022-11-20T01:51:22.975Z,0
2022-11-20T01:52:32.159Z,0
2022-11-20T01:53:41.341Z,0
2022-11-20T01:54:50.505Z,0
2022-11-20T01:55:59.684Z,0
2022-11-20T01:57:08.850Z,0
2022-11-20T01:58:18.027Z,0
2022-11-20T01:59:27.193Z,0
2022-11-20T02:00:36.373Z,0
2022-11-20T02:01:45.552Z,0
2022-11-20T02:02:54.729Z,0
2022-11-20T02:04:02.913Z,0
2022-11-20T02:05:12.097Z,0
2022-11-20T02:06:21.270Z,0
2022-11-20T02:07:30.432Z,0
2022-11-20T02:08:39.793Z,0
2022-11-20T02:09:48.789Z,0
2022-11-20T02:10:57.997Z,0
2022-11-20T02:12:07.134Z,0
2022-11-20T02:13:16.304Z,0
2022-11-20T02:14:25.481Z,0
2022-11-20T02:15:34.650Z,0
2022-11-20T02:17:53.012Z,0
2022-11-20T02:19:01.192Z,0
2022-11-20T02:20:10.371Z,0
2022-11-20T02:21:19.537Z,0
2022-11-20T02:22:28.714Z,0
2022-11-20T02:23:37.891Z,0
2022-11-20T02:24:47.073Z,0
2022-11-20T02:25:56.242Z,0
2022-11-20T02:27:05.425Z,0
2022-11-20T02:28:14.588Z,0
2022-11-20T02:29:23.751Z,0
2022-11-20T02:30:32.927Z,0
2022-11-20T02:31:42.114Z,0
2022-11-20T02:32:51.288Z,0
2022-11-20T02:33:59.474Z,0
2022-11-20T02:35:08.647Z,0
2022-11-20T02:36:17.816Z,0
2022-11-20T02:37:26.991Z,0
2022-11-20T02:38:36.167Z,0
2022-11-20T02:39:45.344Z,0
2022-11-20T02:40:54.516Z,0
2022-11-20T02:42:03.687Z,0
2022-11-20T02:43:11.895Z,0
2022-11-20T02:44:20.094Z,0
2022-11-20T02:45:28.274Z,0
2022-11-20T02:46:36.449Z,0
2022-11-20T02:47:45.631Z,0
2022-11-20T02:48:54.805Z,0
2022-11-20T02:50:03.989Z,0
2022-11-20T02:51:13.150Z,0
2022-11-20T02:52:22.327Z,0
2022-11-20T02:53:31.500Z,0
2022-11-20T02:54:40.716Z,0
2022-11-20T02:55:49.853Z,0
2022-11-20T02:56:59.016Z,0
2022-11-20T02:58:08.194Z,0
2022-11-20T02:59:17.359Z,0
2022-11-20T03:00:26.547Z,0
2022-11-20T03:01:34.740Z,0
2022-11-20T03:02:43.913Z,0
2022-11-20T03:03:53.075Z,0
2022-11-20T03:05:02.254Z,0
2022-11-20T03:06:11.427Z,0
2022-11-20T03:07:20.610Z,0
2022-11-20T03:09:38.944Z,0
2022-11-20T03:10:48.117Z,0
2022-11-20T03:11:57.303Z,0
2022-11-20T03:13:06.477Z,0
2022-11-20T03:14:14.663Z,0
2022-11-20T03:15:22.854Z,0
2022-11-20T03:16:31.054Z,0
2022-11-20T03:17:39.234Z,0
2022-11-20T03:18:48.441Z,0
2022-11-20T03:19:57.590Z,0
2022-11-20T03:21:06.775Z,0
2022-11-20T03:22:15.946Z,0
2022-11-20T03:23:25.121Z,0
2022-11-20T03:24:34.293Z,0
2022-11-20T03:25:43.471Z,0
2022-11-20T03:26:52.634Z,0
2022-11-20T03:28:01.800Z,0
2022-11-20T03:29:10.979Z,0
2022-11-20T03:30:20.153Z,0
2022-11-20T03:31:29.341Z,0
2022-11-20T03:32:37.518Z,0
2022-11-20T03:33:46.700Z,0
2022-11-20T03:34:55.877Z,0
2022-11-20T03:36:05.073Z,0
2022-11-20T03:37:14.221Z,0
2022-11-20T03:38:23.421Z,0
2022-11-20T03:39:32.562Z,0
2022-11-20T03:40:41.726Z,0
2022-11-20T03:41:50.922Z,0
2022-11-20T03:43:00.088Z,0
2022-11-20T03:44:09.251Z,0
2022-11-20T03:45:18.435Z,0
2022-11-20T03:46:27.616Z,0
2022-11-20T03:47:35.800Z,0
2022-11-20T03:48:43.990Z,0
2022-11-20T03:49:52.189Z,0
2022-11-20T03:51:01.365Z,0
2022-11-20T03:52:10.532Z,0
2022-11-20T03:53:19.706Z,0
2022-11-20T03:54:28.876Z,0
2022-11-20T03:55:38.057Z,0
2022-11-20T03:56:47.227Z,0
2022-11-20T03:57:56.406Z,0
2022-11-20T03:59:05.576Z,0
2022-11-20T04:00:14.748Z,0
2022-11-20T04:01:23.922Z,0
2022-11-20T04:02:33.097Z,0
2022-11-20T04:03:42.272Z,0
2022-11-20T04:04:51.436Z,0
2022-11-20T04:05:59.628Z,0
2022-11-20T04:07:08.804Z,9
2022-11-20T04:08:17.978Z,9
2022-11-20T04:09:27.149Z,12
2022-11-20T04:10:36.540Z,9
2022-11-20T04:11:45.513Z,12
2022-11-20T04:12:53.701Z,9
2022-11-20T04:14:01.888Z,9
2022-11-20T04:15:10.084Z,12
2022-11-20T04:16:18.272Z,9
2022-11-20T04:17:27.495Z,9
2022-11-20T04:18:36.694Z,9
2022-11-20T04:19:45.799Z,9
2022-11-20T04:20:54.978Z,9
2022-11-20T04:22:04.151Z,9
2022-11-20T04:23:13.321Z,9
2022-11-20T04:24:22.499Z,9
2022-11-20T04:25:31.665Z,9
2022-11-20T04:26:40.852Z,9
2022-11-20T04:27:50.023Z,9
2022-11-20T04:28:59.196Z,9
2022-11-20T04:30:08.369Z,9
2022-11-20T04:31:16.553Z,9
2022-11-20T04:32:25.725Z,9
2022-11-20T04:33:34.914Z,9
2022-11-20T04:34:44.073Z,9
2022-11-20T04:35:53.247Z,9
2022-11-20T04:37:02.428Z,9
2022-11-20T04:38:11.592Z,9
2022-11-20T04:39:19.799Z,9
2022-11-20T04:40:27.990Z,9
2022-11-20T04:41:37.169Z,9
2022-11-20T04:42:45.345Z,9
2022-11-20T04:43:53.556Z,9
2022-11-20T04:45:01.736Z,9
2022-11-20T04:46:10.916Z,9
2022-11-20T04:47:20.110Z,9
2022-11-20T04:48:29.258Z,9
2022-11-20T04:49:38.426Z,9
2022-11-20T04:50:47.605Z,9
2022-11-20T04:51:56.790Z,9
2022-11-20T04:53:05.958Z,9
2022-11-20T04:54:15.126Z,9
2022-11-20T04:55:24.304Z,9
2022-11-20T04:56:33.482Z,9
2022-11-20T04:57:42.662Z,9
2022-11-20T04:58:51.853Z,9
2022-11-20T05:00:00.005Z,9
2022-11-20T05:01:09.187Z,9
2022-11-20T05:02:18.357Z,9
2022-11-20T05:03:27.539Z,9
2022-11-20T05:04:36.712Z,9
2022-11-20T05:05:45.882Z,9
2022-11-20T05:06:55.050Z,9
2022-11-20T05:08:03.258Z,9
2022-11-20T05:09:11.451Z,9
2022-11-20T05:10:20.605Z,9
2022-11-20T05:11:29.787Z,9
2022-11-20T05:12:38.951Z,9
2022-11-20T05:13:48.140Z,9
2022-11-20T05:14:56.336Z,9
2022-11-20T05:16:04.516Z,9
2022-11-20T05:17:13.700Z,9
2022-11-20T05:18:22.881Z,9
2022-11-20T05:19:32.054Z,9
2022-11-20T05:20:41.219Z,9
2022-11-20T05:21:50.387Z,9
2022-11-20T05:22:59.584Z,9
2022-11-20T05:24:08.758Z,9
2022-11-20T05:25:17.919Z,9
2022-11-20T05:26:27.084Z,9
2022-11-20T05:27:36.260Z,9
2022-11-20T05:28:45.431Z,9
2022-11-20T05:29:54.612Z,9
2022-11-20T05:31:03.793Z,9
2022-11-20T05:32:11.986Z,9
2022-11-20T05:33:21.146Z,9
2022-11-20T05:34:30.315Z,9
2022-11-20T05:35:39.493Z,9
2022-11-20T05:36:48.667Z,9
2022-11-20T05:37:57.845Z,9
2022-11-20T05:39:06.046Z,9
2022-11-20T05:40:14.240Z,9
2022-11-20T05:41:23.404Z,12
2022-11-20T05:43:41.759Z,9
2022-11-20T05:44:50.926Z,9
2022-11-20T05:46:00.100Z,9
2022-11-20T05:47:09.279Z,9
2022-11-20T05:48:18.468Z,9
2022-11-20T05:49:26.656Z,9
2022-11-20T05:50:34.845Z,9
2022-11-20T05:51:44.004Z,9
2022-11-20T05:52:53.174Z,12
2022-11-20T05:54:02.347Z,9
2022-11-20T05:55:11.537Z,9
2022-11-20T05:56:20.705Z,12
2022-11-20T05:57:29.878Z,9
2022-11-20T05:58:39.048Z,9
2022-11-20T05:59:48.221Z,9
2022-11-20T06:00:57.420Z,9
2022-11-20T06:02:06.562Z,12
2022-11-20T06:03:15.747Z,9
2022-11-20T06:04:24.923Z,9
2022-11-20T06:05:33.103Z,9
2022-11-20T06:06:42.284Z,12
2022-11-20T06:07:51.454Z,12
2022-11-20T06:09:00.644Z,12
2022-11-20T06:10:09.806Z,9
2022-11-20T06:11:18.979Z,12
2022-11-20T06:12:28.154Z,12
2022-11-20T06:13:36.350Z,12
2022-11-20T06:14:44.526Z,15
2022-11-20T06:15:53.709Z,15
2022-11-20T06:17:02.885Z,15
2022-11-20T06:18:12.069Z,12
2022-11-20T06:19:21.226Z,12
2022-11-20T06:20:30.395Z,10
2022-11-20T06:21:39.575Z,3
2022-11-20T06:22:48.746Z,3
2022-11-20T06:23:56.948Z,3
2022-11-20T06:25:05.129Z,3
2022-11-20T06:26:14.307Z,4
2022-11-20T06:27:23.475Z,0
2022-11-20T06:28:32.660Z,4
2022-11-20T06:29:41.832Z,1
2022-11-20T06:30:51.027Z,1
2022-11-20T06:32:00.199Z,1
2022-11-20T06:33:09.338Z,5
2022-11-20T06:34:18.534Z,5
2022-11-20T06:35:27.693Z,10
2022-11-20T06:36:36.873Z,3
2022-11-20T06:37:46.055Z,6
2022-11-20T06:38:55.218Z,4
2022-11-20T06:40:03.409Z,4
2022-11-20T06:41:12.576Z,10
2022-11-20T06:42:21.757Z,32
2022-11-20T06:43:30.920Z,28
2022-11-20T06:44:40.102Z,33
2022-11-20T06:45:49.275Z,21
2022-11-20T06:46:58.444Z,9
2022-11-20T06:48:07.627Z,22
2022-11-20T06:49:15.860Z,35
2022-11-20T06:50:24.007Z,40
2022-11-20T06:51:33.182Z,49
2022-11-20T06:52:42.369Z,50
2022-11-20T06:53:50.553Z,71
2022-11-20T06:54:58.734Z,81
2022-11-20T06:56:07.914Z,90
2022-11-20T06:57:17.085Z,91
2022-11-20T06:58:26.254Z,91
2022-11-20T06:59:35.430Z,105
2022-11-20T07:00:44.605Z,119
2022-11-20T07:01:53.786Z,128
2022-11-20T07:03:02.957Z,150
2022-11-20T07:04:12.136Z,154
2022-11-20T07:05:21.314Z,173
2022-11-20T07:06:30.482Z,179
2022-11-20T07:07:39.651Z,205
2022-11-20T07:08:48.818Z,214
2022-11-20T07:09:57.018Z,215
2022-11-20T07:11:06.190Z,218
2022-11-20T07:12:15.360Z,236
2022-11-20T07:13:24.542Z,263
2022-11-20T07:14:33.718Z,269
2022-11-20T07:15:42.884Z,296
2022-11-20T07:18:01.222Z,335
2022-11-20T07:19:10.396Z,318
2022-11-20T07:20:19.578Z,365
2022-11-20T07:21:28.745Z,347
2022-11-20T07:22:37.930Z,398
2022-11-20T07:23:47.098Z,397
2022-11-20T07:24:55.296Z,371
2022-11-20T07:26:04.597Z,447
2022-11-20T07:27:13.626Z,496
2022-11-20T07:28:22.803Z,468
2022-11-20T07:29:31.991Z,476
2022-11-20T07:30:41.159Z,521
2022-11-20T07:31:50.380Z,523
2022-11-20T07:32:59.508Z,531
2022-11-20T07:34:08.676Z,586
2022-11-20T07:35:17.845Z,616
2022-11-20T07:36:27.013Z,612
2022-11-20T07:37:36.189Z,647
2022-11-20T07:38:45.366Z,626
2022-11-20T07:39:53.556Z,563
2022-11-20T07:41:02.725Z,612
2022-11-20T07:42:11.895Z,772
2022-11-20T07:43:21.083Z,867
2022-11-20T07:44:30.261Z,820
2022-11-20T07:45:39.422Z,769
2022-11-20T07:46:48.595Z,949
2022-11-20T07:47:57.771Z,818
2022-11-20T07:49:06.955Z,815
2022-11-20T07:50:16.176Z,1041
2022-11-20T07:51:25.293Z,852
2022-11-20T07:52:34.451Z,929
2022-11-20T07:53:43.697Z,801
2022-11-20T07:54:51.837Z,998
2022-11-20T07:56:01.020Z,971
2022-11-20T07:57:10.222Z,1036
2022-11-20T07:58:19.346Z,1064
2022-11-20T07:59:28.522Z,838
2022-11-20T08:00:37.722Z,1138
2022-11-20T08:01:46.901Z,995
2022-11-20T08:02:56.081Z,1049
2022-11-20T08:04:05.309Z,1154
2022-11-20T08:05:14.420Z,1148
2022-11-20T08:06:23.590Z,1313
2022-11-20T08:07:32.863Z,1233
2022-11-20T08:08:41.937Z,1199
2022-11-20T08:09:50.178Z,1150
2022-11-20T08:10:59.409Z,1320
2022-11-20T08:12:08.495Z,1222
2022-11-20T08:13:17.687Z,1346
2022-11-20T08:14:26.808Z,1275
2022-11-20T08:15:35.993Z,1195
2022-11-20T08:16:45.174Z,1238
2022-11-20T08:17:54.329Z,1383
2022-11-20T08:19:03.498Z,1595
2022-11-20T08:20:12.672Z,1576
2022-11-20T08:21:21.851Z,1351
2022-11-20T08:22:31.025Z,1117
2022-11-20T08:23:40.200Z,1461
2022-11-20T08:24:48.387Z,1607
2022-11-20T08:25:57.570Z,1518
2022-11-20T08:27:06.770Z,1311
2022-11-20T08:28:15.919Z,1302
2022-11-20T08:29:25.087Z,1590
2022-11-20T08:30:34.262Z,2049
2022-11-20T08:31:43.461Z,1866
2022-11-20T08:32:52.627Z,1579
2022-11-20T08:34:00.797Z,1651
2022-11-20T08:35:09.968Z,1966
2022-11-20T08:36:19.230Z,1705
2022-11-20T08:37:28.338Z,1443
2022-11-20T08:38:37.491Z,1925
2022-11-20T08:39:46.663Z,1886
2022-11-20T08:40:55.872Z,1867
2022-11-20T08:42:05.012Z,2252
2022-11-20T08:43:14.185Z,2022
2022-11-20T08:44:23.362Z,1912
2022-11-20T08:45:32.529Z,1434
2022-11-20T08:46:41.706Z,1823
2022-11-20T08:47:50.890Z,2222
2022-11-20T08:48:59.074Z,1998
2022-11-20T08:50:08.300Z,1496
2022-11-20T08:51:17.423Z,1752
2022-11-20T08:52:26.587Z,2099
2022-11-20T08:53:35.757Z,2312
2022-11-20T08:54:44.936Z,1721
2022-11-20T08:55:54.121Z,2075
2022-11-20T08:57:03.331Z,2629
2022-11-20T08:58:12.475Z,2238
2022-11-20T08:59:21.709Z,2075
2022-11-20T09:00:30.805Z,2567
2022-11-20T09:01:39.963Z,2694
2022-11-20T09:02:49.218Z,2725
2022-11-20T09:03:57.405Z,2440
2022-11-20T09:06:15.808Z,3245
2022-11-20T09:07:25.039Z,3357
2022-11-20T09:08:34.244Z,3481
2022-11-20T09:09:43.209Z,3506
2022-11-20T09:10:52.531Z,3495
2022-11-20T09:12:01.629Z,2630
2022-11-20T09:13:10.930Z,2830
2022-11-20T09:14:20.029Z,3436
2022-11-20T09:15:29.224Z,3325
2022-11-20T09:16:38.300Z,3490
2022-11-20T09:17:47.575Z,3589
2022-11-20T09:18:55.672Z,3957
2022-11-20T09:20:04.769Z,3271
2022-11-20T09:21:14.165Z,2630
2022-11-20T09:22:23.148Z,2219
2022-11-20T09:23:32.525Z,4455
2022-11-20T09:24:41.677Z,9221
2022-11-20T09:25:50.832Z,5444
2022-11-20T09:26:59.813Z,6113
2022-11-20T09:29:18.267Z,3993
2022-11-20T09:30:27.537Z,5683
2022-11-20T09:31:36.673Z,6951
2022-11-20T09:32:45.683Z,2565
2022-11-20T09:33:53.972Z,4795
2022-11-20T09:35:03.195Z,10262
2022-11-20T09:36:12.207Z,5222
2022-11-20T09:37:21.563Z,7678
2022-11-20T09:38:30.570Z,6901
2022-11-20T09:39:39.876Z,6958
2022-11-20T09:40:49.052Z,4608
2022-11-20T09:41:58.266Z,6785
2022-11-20T09:43:07.400Z,5763
2022-11-20T09:44:16.640Z,8047
2022-11-20T09:45:25.825Z,5966
2022-11-20T09:46:34.801Z,5657
2022-11-20T09:47:43.941Z,6829
2022-11-20T09:48:52.131Z,7730
2022-11-20T09:50:01.507Z,8647
2022-11-20T09:51:10.653Z,6652
2022-11-20T09:52:19.815Z,5984
2022-11-20T09:53:28.996Z,7076
2022-11-20T09:54:38.165Z,5637
2022-11-20T09:55:47.371Z,6693
2022-11-20T09:56:56.471Z,6831
2022-11-20T09:58:05.659Z,7331
2022-11-20T09:59:14.824Z,6842
2022-11-20T10:00:23.851Z,7523
2022-11-20T10:01:33.070Z,6580
2022-11-20T10:02:42.381Z,6529
2022-11-20T10:03:50.631Z,6063
2022-11-20T10:04:59.730Z,7941
2022-11-20T10:06:08.938Z,6653
2022-11-20T10:07:18.072Z,6640
2022-11-20T10:08:27.252Z,6216
2022-11-20T10:09:36.446Z,5900
2022-11-20T10:10:45.588Z,7846
2022-11-20T10:11:54.591Z,6597
2022-11-20T10:13:03.999Z,8142
2022-11-20T10:14:13.090Z,6828
2022-11-20T10:15:22.354Z,5973
2022-11-20T10:16:31.494Z,7880
2022-11-20T10:17:40.618Z,7368
2022-11-20T10:18:48.854Z,6811
2022-11-20T10:19:57.972Z,6823
2022-11-20T10:21:07.219Z,6469
2022-11-20T10:22:16.352Z,6161
2022-11-20T10:23:25.580Z,6130
2022-11-20T10:24:34.526Z,5986
2022-11-20T10:25:43.684Z,6222
2022-11-20T10:26:53.021Z,6401
2022-11-20T10:28:02.220Z,6589
2022-11-20T10:29:11.196Z,6568
2022-11-20T10:30:20.377Z,6157
2022-11-20T10:31:29.646Z,6201
2022-11-20T10:32:38.918Z,5987
2022-11-20T10:34:56.084Z,6023
2022-11-20T10:36:05.260Z,6254
2022-11-20T10:37:14.492Z,6152
2022-11-20T10:38:23.785Z,6051
2022-11-20T10:39:32.953Z,6252
2022-11-20T10:40:42.121Z,6271
2022-11-20T10:41:51.326Z,6526
2022-11-20T10:43:00.488Z,6369
2022-11-20T10:44:09.471Z,6425
2022-11-20T10:45:18.816Z,6463
2022-11-20T10:46:27.993Z,6715
2022-11-20T10:47:37.232Z,6713
2022-11-20T10:48:45.423Z,6645
2022-11-20T10:49:54.497Z,6665
2022-11-20T10:51:03.505Z,6496
2022-11-20T10:52:12.841Z,6917
2022-11-20T10:53:21.970Z,6648
2022-11-20T10:54:31.195Z,6789
2022-11-20T10:55:40.403Z,6802
2022-11-20T10:56:49.576Z,6808
2022-11-20T10:57:58.771Z,6789
2022-11-20T10:59:07.727Z,6961
2022-11-20T11:00:17.042Z,6825
2022-11-20T11:01:26.225Z,9255
2022-11-20T11:02:34.266Z,6757
2022-11-20T11:03:42.620Z,4635
2022-11-20T11:04:51.688Z,4489
2022-11-20T11:05:59.988Z,7655
2022-11-20T11:07:08.009Z,9802
2022-11-20T11:08:17.375Z,8080
2022-11-20T11:09:26.516Z,6267
2022-11-20T11:10:35.693Z,5593
2022-11-20T11:11:44.937Z,5066
2022-11-20T11:12:54.076Z,4605
2022-11-20T11:14:03.213Z,5375
2022-11-20T11:15:12.393Z,3300
2022-11-20T11:16:21.573Z,3895
2022-11-20T11:18:39.719Z,6998
2022-11-20T11:19:49.076Z,7535
2022-11-20T11:20:58.266Z,7988
2022-11-20T11:22:06.445Z,9297
2022-11-20T11:23:15.440Z,10801
2022-11-20T11:24:24.773Z,5505
2022-11-20T11:25:33.946Z,5084
2022-11-20T11:26:43.142Z,9160
2022-11-20T11:27:52.268Z,10362
2022-11-20T11:29:01.549Z,6929
2022-11-20T11:30:10.605Z,10177
2022-11-20T11:31:18.670Z,11882
2022-11-20T11:32:27.016Z,7200
2022-11-20T11:33:35.213Z,7672
2022-11-20T11:34:43.445Z,6209
2022-11-20T11:35:52.580Z,10575
2022-11-20T11:37:01.779Z,5566
2022-11-20T11:38:10.761Z,11192
2022-11-20T11:39:19.995Z,9121
2022-11-20T11:40:29.294Z,8073
2022-11-20T11:41:38.436Z,12032
2022-11-20T11:42:47.604Z,9856
2022-11-20T11:43:56.619Z,7989
2022-11-20T11:45:05.949Z,6698
2022-11-20T11:46:15.153Z,8355
2022-11-20T11:47:24.252Z,7127
2022-11-20T11:48:33.506Z,9610
2022-11-20T11:49:41.676Z,10678
2022-11-20T11:50:50.822Z,11514
2022-11-20T11:52:00.035Z,11323
2022-11-20T11:53:09.224Z,9953
2022-11-20T11:54:18.454Z,8942
2022-11-20T11:55:27.614Z,7390
2022-11-20T11:56:36.709Z,4465
2022-11-20T11:57:44.899Z,9566
2022-11-20T11:58:53.107Z,10303
2022-11-20T12:00:02.312Z,10779
2022-11-20T12:01:11.254Z,11015
2022-11-20T12:02:20.636Z,11354
2022-11-20T12:03:29.803Z,11303
2022-11-20T12:04:38.940Z,11602
2022-11-20T12:05:48.144Z,11571
2022-11-20T12:06:57.310Z,10726
2022-11-20T12:08:06.453Z,11653
2022-11-20T12:09:15.464Z,14046
2022-11-20T12:10:24.851Z,11878
2022-11-20T12:11:34.063Z,8867
2022-11-20T12:12:43.148Z,11742
2022-11-20T12:13:51.339Z,12395
2022-11-20T12:15:00.509Z,12208
2022-11-20T12:16:09.512Z,12473
2022-11-20T12:17:18.815Z,12535
2022-11-20T12:18:28.004Z,10888
2022-11-20T12:19:37.230Z,10515
2022-11-20T12:20:46.398Z,7733
2022-11-20T12:21:54.563Z,10754
2022-11-20T12:23:02.803Z,15456
2022-11-20T12:24:10.979Z,11032
2022-11-20T12:25:19.154Z,4062
2022-11-20T12:26:28.272Z,16931
2022-11-20T12:27:37.492Z,5515
2022-11-20T12:28:46.686Z,10775
2022-11-20T12:29:55.865Z,6117
2022-11-20T12:31:05.036Z,9962
2022-11-20T12:32:14.182Z,5674
2022-11-20T12:33:23.326Z,7945
2022-11-20T12:34:32.544Z,5370
2022-11-20T12:35:41.663Z,11596
2022-11-20T12:36:50.900Z,13439
2022-11-20T12:38:00.035Z,20610
2022-11-20T12:39:09.185Z,16145
2022-11-20T12:40:17.223Z,11176
2022-11-20T12:42:35.766Z,7334
2022-11-20T12:43:44.916Z,7248
2022-11-20T12:46:03.121Z,6461
2022-11-20T12:47:11.469Z,24341
2022-11-20T12:48:19.567Z,16329
2022-11-20T12:49:28.714Z,6208
2022-11-20T12:50:38.007Z,11480
2022-11-20T12:51:47.140Z,17650
2022-11-20T12:52:56.353Z,14442
2022-11-20T12:54:05.494Z,16184
2022-11-20T12:55:14.664Z,6101
2022-11-20T12:56:23.844Z,7426
2022-11-20T12:57:33.045Z,18953
2022-11-20T12:58:42.169Z,7435
2022-11-20T12:59:50.436Z,8294
2022-11-20T13:00:58.411Z,19515
2022-11-20T13:02:07.567Z,12249
2022-11-20T13:03:16.897Z,24662
2022-11-20T13:04:26.059Z,12358
2022-11-20T13:05:35.290Z,8993
2022-11-20T13:06:44.372Z,6149
2022-11-20T13:07:53.518Z,5236
2022-11-20T13:09:02.627Z,5049
2022-11-20T13:10:11.802Z,4884
2022-11-20T13:11:21.034Z,4907
2022-11-20T13:12:30.178Z,5168
2022-11-20T13:13:39.407Z,5153
2022-11-20T13:14:48.484Z,5414
2022-11-20T13:15:56.859Z,5185
2022-11-20T13:17:05.851Z,6787
2022-11-20T13:18:15.108Z,5736
2022-11-20T13:19:24.346Z,7437
2022-11-20T13:20:33.370Z,7203
2022-11-20T13:21:42.566Z,7196
2022-11-20T13:22:51.728Z,6842
2022-11-20T13:24:00.884Z,6680
2022-11-20T13:25:10.087Z,5404
2022-11-20T13:26:19.227Z,8319
2022-11-20T13:27:28.400Z,7248
2022-11-20T13:28:37.668Z,5751
2022-11-20T13:29:46.739Z,5216
2022-11-20T13:30:55.029Z,4866
2022-11-20T13:32:04.112Z,4178
2022-11-20T13:33:13.376Z,3867
2022-11-20T13:34:22.599Z,3798
2022-11-20T13:35:31.820Z,3987
2022-11-20T13:36:40.866Z,3950
2022-11-20T13:37:50.050Z,4165
2022-11-20T13:38:59.138Z,4227
2022-11-20T13:40:08.310Z,4148
2022-11-20T13:41:17.509Z,4140
2022-11-20T13:42:26.657Z,4027
2022-11-20T13:43:35.831Z,3920
2022-11-20T13:44:45.155Z,3777
2022-11-20T13:45:53.246Z,3639
2022-11-20T13:47:02.452Z,3433
2022-11-20T13:48:11.657Z,3264
2022-11-20T13:49:20.788Z,2934
2022-11-20T13:50:29.930Z,3347
2022-11-20T13:51:39.086Z,3400
2022-11-20T13:52:48.266Z,3448
2022-11-20T13:53:57.450Z,3542
2022-11-20T13:55:06.601Z,3821
2022-11-20T13:56:15.857Z,4078
2022-11-20T13:58:34.253Z,4417
2022-11-20T13:59:43.345Z,4377
2022-11-20T14:00:51.478Z,4385
2022-11-20T14:02:00.669Z,4381
2022-11-20T14:03:09.860Z,4379
2022-11-20T14:04:19.114Z,4339
2022-11-20T14:05:28.294Z,4422
2022-11-20T14:06:37.471Z,4258
2022-11-20T14:07:46.618Z,3828
2022-11-20T14:08:55.698Z,3285
2022-11-20T14:10:04.859Z,2665
2022-11-20T14:11:14.042Z,2133
2022-11-20T14:12:23.352Z,1840
2022-11-20T14:13:32.380Z,1678
2022-11-20T14:14:41.632Z,1527
2022-11-20T14:15:49.746Z,1465
2022-11-20T14:16:58.916Z,1345
2022-11-20T14:18:08.214Z,1258
2022-11-20T14:19:17.273Z,1104
2022-11-20T14:20:26.445Z,1066
2022-11-20T14:21:35.609Z,1018
2022-11-20T14:22:44.781Z,947
2022-11-20T14:23:53.952Z,881
2022-11-20T14:25:03.185Z,812
2022-11-20T14:26:12.334Z,802
2022-11-20T14:27:21.471Z,779
2022-11-20T14:28:30.658Z,734
2022-11-20T14:29:39.848Z,695
2022-11-20T14:30:48.003Z,666
2022-11-20T14:31:57.175Z,635
2022-11-20T14:33:06.370Z,669
2022-11-20T14:34:15.641Z,649
2022-11-20T14:35:24.695Z,654
2022-11-20T14:36:33.869Z,672
2022-11-20T14:37:43.130Z,639
2022-11-20T14:38:52.216Z,674
2022-11-20T14:40:01.517Z,803
2022-11-20T14:41:10.606Z,908
2022-11-20T14:42:19.860Z,913
2022-11-20T14:43:29.014Z,916
2022-11-20T14:44:38.432Z,859
2022-11-20T14:45:46.307Z,763
2022-11-20T14:46:55.521Z,690
2022-11-20T14:48:04.665Z,638
2022-11-20T14:49:13.810Z,580
2022-11-20T14:50:22.968Z,535
2022-11-20T14:51:32.126Z,508
2022-11-20T14:52:41.307Z,490
2022-11-20T14:53:49.505Z,473
2022-11-20T14:54:57.873Z,473
2022-11-20T14:56:06.917Z,507
2022-11-20T14:57:16.097Z,532
2022-11-20T14:58:25.202Z,554
2022-11-20T14:59:33.429Z,513
2022-11-20T15:00:41.670Z,467
2022-11-20T15:01:50.846Z,443
2022-11-20T15:02:59.960Z,416
2022-11-20T15:04:09.180Z,367
2022-11-20T15:05:18.445Z,353
2022-11-20T15:06:27.451Z,323
2022-11-20T15:07:36.737Z,348
2022-11-20T15:08:45.801Z,359
2022-11-20T15:09:54.975Z,340
2022-11-20T15:11:04.162Z,299
2022-11-20T15:12:13.321Z,268
2022-11-20T15:13:22.502Z,249
2022-11-20T15:14:31.806Z,239
2022-11-20T15:15:39.969Z,213
2022-11-20T15:16:49.017Z,211
2022-11-20T15:17:58.203Z,206
2022-11-20T15:19:07.508Z,192
2022-11-20T15:20:16.573Z,175
2022-11-20T15:21:25.760Z,165
2022-11-20T15:22:34.928Z,160
2022-11-20T15:23:43.167Z,146
2022-11-20T15:24:51.281Z,145
2022-11-20T15:26:00.452Z,132
2022-11-20T15:27:09.714Z,118
2022-11-20T15:28:18.791Z,122
2022-11-20T15:29:28.260Z,112
2022-11-20T15:30:37.280Z,105
2022-11-20T15:31:46.443Z,92
2022-11-20T15:32:55.601Z,79
2022-11-20T15:34:04.809Z,72
2022-11-20T15:35:14.053Z,71
2022-11-20T15:36:22.175Z,62
2022-11-20T15:38:39.603Z,56
2022-11-20T15:39:48.660Z,56
2022-11-20T15:40:57.926Z,50
2022-11-20T15:42:07.011Z,47
2022-11-20T15:43:16.216Z,47
2022-11-20T15:44:25.410Z,36
2022-11-20T15:45:34.513Z,36
2022-11-20T15:46:43.622Z,36
2022-11-20T15:47:52.905Z,35
2022-11-20T15:49:02.157Z,26
2022-11-20T15:50:11.291Z,26
2022-11-20T15:51:20.441Z,26
2022-11-20T15:52:28.625Z,13
2022-11-20T15:53:37.731Z,20
2022-11-20T15:54:46.884Z,20
2022-11-20T15:55:56.001Z,20
2022-11-20T15:57:05.279Z,13
2022-11-20T15:58:14.441Z,15
2022-11-20T15:59:23.526Z,15
2022-11-20T16:00:32.861Z,15
2022-11-20T16:01:40.982Z,9
2022-11-20T16:02:49.068Z,15
2022-11-20T16:03:58.409Z,9
2022-11-20T16:05:07.443Z,12
2022-11-20T16:06:15.644Z,12
2022-11-20T16:07:23.812Z,12
2022-11-20T16:08:32.979Z,9
2022-11-20T16:09:42.220Z,9
2022-11-20T16:10:51.318Z,9
2022-11-20T16:12:00.591Z,12
2022-11-20T16:13:09.722Z,12
2022-11-20T16:14:18.950Z,9
2022-11-20T16:15:28.071Z,9
2022-11-20T16:16:36.368Z,9
2022-11-20T16:17:45.397Z,9
2022-11-20T16:18:54.552Z,12
2022-11-20T16:20:03.721Z,9
2022-11-20T16:21:12.915Z,9